sensor_id;sensor_type;location;lat;lon;timestamp;P1;durP1;ratioP1;P2;durP2;ratioP2
71626;SDS011;59475;52.464;13.590;2023-02-28T00:01:19;13.05;;;8.50;;
71626;SDS011;59475;52.464;13.590;2023-02-28T00:03:44;10.63;;;6.90;;
71626;SDS011;59475;52.464;13.590;2023-02-28T00:06:10;11.90;;;7.22;;
71626;SDS011;59475;52.464;13.590;2023-02-28T00:08:36;13.67;;;7.80;;
71626;SDS011;59475;52.464;13.590;2023-02-28T00:11:06;11.50;;;6.78;;
71626;SDS011;59475;52.464;13.590;2023-02-28T00:13:34;11.93;;;7.63;;
71626;SDS011;59475;52.464;13.590;2023-02-28T00:16:03;10.80;;;6.10;;
71626;SDS011;59475;52.464;13.590;2023-02-28T00:18:34;14.70;;;6.22;;
71626;SDS011;59475;52.464;13.590;2023-02-28T00:20:59;9.13;;;5.13;;
71626;SDS011;59475;52.464;13.590;2023-02-28T00:23:25;12.45;;;6.00;;
71626;SDS011;59475;52.464;13.590;2023-02-28T00:25:51;9.93;;;5.70;;
71626;SDS011;59475;52.464;13.590;2023-02-28T00:28:17;11.00;;;6.03;;
71626;SDS011;59475;52.464;13.590;2023-02-28T00:30:42;10.27;;;6.20;;
71626;SDS011;59475;52.464;13.590;2023-02-28T00:33:08;9.30;;;5.78;;
71626;SDS011;59475;52.464;13.590;2023-02-28T00:35:33;10.60;;;5.60;;
71626;SDS011;59475;52.464;13.590;2023-02-28T00:37:59;8.43;;;5.43;;
71626;SDS011;59475;52.464;13.590;2023-02-28T00:40:24;10.43;;;6.00;;
71626;SDS011;59475;52.464;13.590;2023-02-28T00:42:50;11.27;;;5.50;;
71626;SDS011;59475;52.464;13.590;2023-02-28T00:45:15;10.67;;;6.00;;
71626;SDS011;59475;52.464;13.590;2023-02-28T00:47:40;9.07;;;5.23;;
71626;SDS011;59475;52.464;13.590;2023-02-28T00:50:06;10.20;;;5.83;;
71626;SDS011;59475;52.464;13.590;2023-02-28T00:52:32;8.60;;;5.40;;
71626;SDS011;59475;52.464;13.590;2023-02-28T00:54:57;10.33;;;5.47;;
71626;SDS011;59475;52.464;13.590;2023-02-28T00:57:23;10.10;;;5.47;;
71626;SDS011;59475;52.464;13.590;2023-02-28T00:59:48;10.30;;;5.43;;
71626;SDS011;59475;52.464;13.590;2023-02-28T01:02:14;8.80;;;5.70;;
71626;SDS011;59475;52.464;13.590;2023-02-28T01:04:39;7.80;;;5.20;;
71626;SDS011;59475;52.464;13.590;2023-02-28T01:07:05;9.77;;;5.63;;
71626;SDS011;59475;52.464;13.590;2023-02-28T01:09:30;8.03;;;4.93;;
71626;SDS011;59475;52.464;13.590;2023-02-28T01:11:56;10.17;;;5.20;;
71626;SDS011;59475;52.464;13.590;2023-02-28T01:14:21;7.47;;;4.97;;
71626;SDS011;59475;52.464;13.590;2023-02-28T01:16:47;7.30;;;4.90;;
71626;SDS011;59475;52.464;13.590;2023-02-28T01:19:12;9.73;;;5.13;;
71626;SDS011;59475;52.464;13.590;2023-02-28T01:21:38;8.57;;;5.00;;
71626;SDS011;59475;52.464;13.590;2023-02-28T01:24:04;9.13;;;4.93;;
71626;SDS011;59475;52.464;13.590;2023-02-28T01:26:29;10.25;;;5.10;;
71626;SDS011;59475;52.464;13.590;2023-02-28T01:28:55;8.00;;;4.87;;
71626;SDS011;59475;52.464;13.590;2023-02-28T01:31:21;8.73;;;4.97;;
71626;SDS011;59475;52.464;13.590;2023-02-28T01:33:47;6.73;;;4.47;;
71626;SDS011;59475;52.464;13.590;2023-02-28T01:36:13;8.32;;;4.10;;
71626;SDS011;59475;52.464;13.590;2023-02-28T01:38:41;6.78;;;4.60;;
71626;SDS011;59475;52.464;13.590;2023-02-28T01:41:07;9.27;;;5.10;;
71626;SDS011;59475;52.464;13.590;2023-02-28T01:46:13;7.13;;;4.57;;
71626;SDS011;59475;52.464;13.590;2023-02-28T01:48:46;6.75;;;4.53;;
71626;SDS011;59475;52.464;13.590;2023-02-28T01:51:23;7.72;;;5.45;;
71626;SDS011;59475;52.464;13.590;2023-02-28T01:54:01;6.87;;;4.57;;
71626;SDS011;59475;52.464;13.590;2023-02-28T01:56:31;7.40;;;5.15;;
71626;SDS011;59475;52.464;13.590;2023-02-28T01:59:00;9.07;;;4.88;;
71626;SDS011;59475;52.464;13.590;2023-02-28T02:01:26;7.20;;;4.80;;
71626;SDS011;59475;52.464;13.590;2023-02-28T02:03:59;7.47;;;4.70;;
71626;SDS011;59475;52.464;13.590;2023-02-28T02:06:28;7.80;;;4.50;;
71626;SDS011;59475;52.464;13.590;2023-02-28T02:09:05;7.07;;;4.93;;
71626;SDS011;59475;52.464;13.590;2023-02-28T02:11:31;10.07;;;5.00;;
71626;SDS011;59475;52.464;13.590;2023-02-28T02:16:56;8.23;;;4.75;;
71626;SDS011;59475;52.464;13.590;2023-02-28T02:38:20;7.20;;;4.87;;
71626;SDS011;59475;52.464;13.590;2023-02-28T02:46:41;9.23;;;4.30;;
71626;SDS011;59475;52.464;13.590;2023-02-28T02:49:03;9.98;;;4.57;;
71626;SDS011;59475;52.464;13.590;2023-02-28T02:51:33;8.80;;;4.85;;
71626;SDS011;59475;52.464;13.590;2023-02-28T02:54:02;8.10;;;4.28;;
71626;SDS011;59475;52.464;13.590;2023-02-28T02:56:33;7.55;;;4.65;;
71626;SDS011;59475;52.464;13.590;2023-02-28T02:59:01;8.03;;;4.40;;
71626;SDS011;59475;52.464;13.590;2023-02-28T03:01:29;8.15;;;4.38;;
71626;SDS011;59475;52.464;13.590;2023-02-28T03:04:00;8.02;;;4.90;;
71626;SDS011;59475;52.464;13.590;2023-02-28T03:06:38;10.80;;;4.57;;
71626;SDS011;59475;52.464;13.590;2023-02-28T03:09:04;8.40;;;4.50;;
71626;SDS011;59475;52.464;13.590;2023-02-28T03:11:29;10.05;;;4.70;;
71626;SDS011;59475;52.464;13.590;2023-02-28T03:22:37;5.38;;;3.78;;
71626;SDS011;59475;52.464;13.590;2023-02-28T03:30:29;6.90;;;4.38;;
71626;SDS011;59475;52.464;13.590;2023-02-28T03:35:39;7.72;;;4.20;;
71626;SDS011;59475;52.464;13.590;2023-02-28T03:38:10;7.32;;;4.63;;
71626;SDS011;59475;52.464;13.590;2023-02-28T03:40:43;7.73;;;4.40;;
71626;SDS011;59475;52.464;13.590;2023-02-28T03:45:56;8.48;;;4.90;;
71626;SDS011;59475;52.464;13.590;2023-02-28T03:48:29;7.03;;;5.10;;
71626;SDS011;59475;52.464;13.590;2023-02-28T03:51:00;8.05;;;5.03;;
71626;SDS011;59475;52.464;13.590;2023-02-28T03:53:28;10.17;;;4.37;;
71626;SDS011;59475;52.464;13.590;2023-02-28T03:55:59;7.72;;;4.90;;
71626;SDS011;59475;52.464;13.590;2023-02-28T03:58:42;7.30;;;5.22;;
71626;SDS011;59475;52.464;13.590;2023-02-28T04:01:15;6.90;;;4.57;;
71626;SDS011;59475;52.464;13.590;2023-02-28T04:03:45;9.23;;;4.38;;
71626;SDS011;59475;52.464;13.590;2023-02-28T04:06:21;8.30;;;4.27;;
71626;SDS011;59475;52.464;13.590;2023-02-28T04:08:48;7.40;;;4.78;;
71626;SDS011;59475;52.464;13.590;2023-02-28T04:13:52;8.43;;;4.73;;
71626;SDS011;59475;52.464;13.590;2023-02-28T04:16:18;9.00;;;4.70;;
71626;SDS011;59475;52.464;13.590;2023-02-28T04:18:43;8.30;;;5.37;;
71626;SDS011;59475;52.464;13.590;2023-02-28T04:21:09;7.73;;;4.23;;
71626;SDS011;59475;52.464;13.590;2023-02-28T04:23:35;8.60;;;6.30;;
71626;SDS011;59475;52.464;13.590;2023-02-28T04:26:01;13.93;;;4.50;;
71626;SDS011;59475;52.464;13.590;2023-02-28T04:28:27;8.02;;;4.70;;
71626;SDS011;59475;52.464;13.590;2023-02-28T04:30:59;8.57;;;5.00;;
71626;SDS011;59475;52.464;13.590;2023-02-28T04:33:26;6.95;;;4.40;;
71626;SDS011;59475;52.464;13.590;2023-02-28T04:35:59;8.30;;;5.13;;
71626;SDS011;59475;52.464;13.590;2023-02-28T04:38:25;8.02;;;4.78;;
71626;SDS011;59475;52.464;13.590;2023-02-28T04:40:50;11.20;;;5.07;;
71626;SDS011;59475;52.464;13.590;2023-02-28T04:43:16;7.27;;;4.37;;
71626;SDS011;59475;52.464;13.590;2023-02-28T04:45:41;10.60;;;5.40;;
71626;SDS011;59475;52.464;13.590;2023-02-28T04:48:06;7.70;;;5.03;;
71626;SDS011;59475;52.464;13.590;2023-02-28T04:50:32;8.13;;;5.00;;
71626;SDS011;59475;52.464;13.590;2023-02-28T04:52:57;9.37;;;5.90;;
71626;SDS011;59475;52.464;13.590;2023-02-28T04:55:23;10.10;;;5.20;;
71626;SDS011;59475;52.464;13.590;2023-02-28T04:57:48;8.60;;;5.80;;
71626;SDS011;59475;52.464;13.590;2023-02-28T05:00:14;9.83;;;5.17;;
71626;SDS011;59475;52.464;13.590;2023-02-28T05:02:41;7.35;;;5.60;;
71626;SDS011;59475;52.464;13.590;2023-02-28T05:05:07;6.90;;;5.22;;
71626;SDS011;59475;52.464;13.590;2023-02-28T05:07:33;9.17;;;4.23;;
71626;SDS011;59475;52.464;13.590;2023-02-28T05:09:58;6.43;;;4.23;;
71626;SDS011;59475;52.464;13.590;2023-02-28T05:12:23;8.55;;;5.57;;
71626;SDS011;59475;52.464;13.590;2023-02-28T05:14:49;8.13;;;4.87;;
71626;SDS011;59475;52.464;13.590;2023-02-28T05:17:14;9.97;;;5.37;;
71626;SDS011;59475;52.464;13.590;2023-02-28T05:19:39;12.07;;;4.97;;
71626;SDS011;59475;52.464;13.590;2023-02-28T05:22:10;13.07;;;5.13;;
71626;SDS011;59475;52.464;13.590;2023-02-28T05:24:39;8.77;;;4.65;;
71626;SDS011;59475;52.464;13.590;2023-02-28T05:27:04;12.87;;;5.87;;
71626;SDS011;59475;52.464;13.590;2023-02-28T05:29:29;9.10;;;5.23;;
71626;SDS011;59475;52.464;13.590;2023-02-28T05:31:55;12.33;;;6.03;;
71626;SDS011;59475;52.464;13.590;2023-02-28T05:34:20;8.98;;;5.30;;
71626;SDS011;59475;52.464;13.590;2023-02-28T05:36:45;7.43;;;5.17;;
71626;SDS011;59475;52.464;13.590;2023-02-28T05:39:11;10.37;;;5.67;;
71626;SDS011;59475;52.464;13.590;2023-02-28T05:41:38;9.00;;;5.80;;
71626;SDS011;59475;52.464;13.590;2023-02-28T05:44:05;10.07;;;4.67;;
71626;SDS011;59475;52.464;13.590;2023-02-28T05:46:30;9.75;;;5.78;;
71626;SDS011;59475;52.464;13.590;2023-02-28T05:48:55;8.80;;;5.57;;
71626;SDS011;59475;52.464;13.590;2023-02-28T05:51:22;11.02;;;5.50;;
71626;SDS011;59475;52.464;13.590;2023-02-28T05:53:48;10.17;;;5.70;;
71626;SDS011;59475;52.464;13.590;2023-02-28T05:56:14;9.30;;;5.32;;
71626;SDS011;59475;52.464;13.590;2023-02-28T05:58:39;11.00;;;6.03;;
71626;SDS011;59475;52.464;13.590;2023-02-28T06:03:48;7.95;;;6.03;;
71626;SDS011;59475;52.464;13.590;2023-02-28T06:06:13;10.97;;;6.23;;
71626;SDS011;59475;52.464;13.590;2023-02-28T06:08:39;8.73;;;5.67;;
71626;SDS011;59475;52.464;13.590;2023-02-28T06:11:04;10.47;;;5.97;;
71626;SDS011;59475;52.464;13.590;2023-02-28T06:13:29;9.03;;;6.00;;
71626;SDS011;59475;52.464;13.590;2023-02-28T06:15:55;10.20;;;6.00;;
71626;SDS011;59475;52.464;13.590;2023-02-28T06:18:20;9.30;;;5.85;;
71626;SDS011;59475;52.464;13.590;2023-02-28T06:20:52;9.17;;;5.87;;
71626;SDS011;59475;52.464;13.590;2023-02-28T06:23:19;9.73;;;5.43;;
71626;SDS011;59475;52.464;13.590;2023-02-28T06:25:45;10.23;;;6.33;;
71626;SDS011;59475;52.464;13.590;2023-02-28T06:28:11;8.00;;;5.95;;
71626;SDS011;59475;52.464;13.590;2023-02-28T06:30:37;10.63;;;5.97;;
71626;SDS011;59475;52.464;13.590;2023-02-28T06:33:05;8.52;;;5.85;;
71626;SDS011;59475;52.464;13.590;2023-02-28T06:35:30;9.73;;;6.18;;
71626;SDS011;59475;52.464;13.590;2023-02-28T06:37:56;9.73;;;5.63;;
71626;SDS011;59475;52.464;13.590;2023-02-28T06:40:21;10.13;;;6.83;;
71626;SDS011;59475;52.464;13.590;2023-02-28T06:42:46;10.47;;;7.20;;
71626;SDS011;59475;52.464;13.590;2023-02-28T06:45:12;8.87;;;6.07;;
71626;SDS011;59475;52.464;13.590;2023-02-28T06:47:38;11.67;;;6.53;;
71626;SDS011;59475;52.464;13.590;2023-02-28T06:50:05;12.18;;;5.88;;
71626;SDS011;59475;52.464;13.590;2023-02-28T06:52:32;11.98;;;5.93;;
71626;SDS011;59475;52.464;13.590;2023-02-28T06:55:01;9.43;;;5.65;;
71626;SDS011;59475;52.464;13.590;2023-02-28T06:57:27;10.47;;;6.30;;
71626;SDS011;59475;52.464;13.590;2023-02-28T06:59:55;10.55;;;6.75;;
71626;SDS011;59475;52.464;13.590;2023-02-28T07:02:22;10.82;;;6.25;;
71626;SDS011;59475;52.464;13.590;2023-02-28T07:04:47;15.23;;;6.90;;
71626;SDS011;59475;52.464;13.590;2023-02-28T07:07:12;13.60;;;5.87;;
71626;SDS011;59475;52.464;13.590;2023-02-28T07:09:38;11.37;;;6.43;;
71626;SDS011;59475;52.464;13.590;2023-02-28T07:12:03;9.35;;;5.55;;
71626;SDS011;59475;52.464;13.590;2023-02-28T07:14:29;9.07;;;5.50;;
71626;SDS011;59475;52.464;13.590;2023-02-28T07:16:54;10.27;;;5.73;;
71626;SDS011;59475;52.464;13.590;2023-02-28T07:19:20;8.97;;;5.90;;
71626;SDS011;59475;52.464;13.590;2023-02-28T07:21:45;9.68;;;6.30;;
71626;SDS011;59475;52.464;13.590;2023-02-28T07:24:10;9.00;;;6.20;;
71626;SDS011;59475;52.464;13.590;2023-02-28T07:26:36;10.63;;;6.00;;
71626;SDS011;59475;52.464;13.590;2023-02-28T07:29:01;10.37;;;6.00;;
71626;SDS011;59475;52.464;13.590;2023-02-28T07:54:51;8.90;;;4.95;;
71626;SDS011;59475;52.464;13.590;2023-02-28T07:57:16;8.87;;;4.80;;
71626;SDS011;59475;52.464;13.590;2023-02-28T07:59:42;7.35;;;4.97;;
71626;SDS011;59475;52.464;13.590;2023-02-28T08:02:12;9.65;;;5.05;;
71626;SDS011;59475;52.464;13.590;2023-02-28T08:04:39;8.03;;;5.03;;
71626;SDS011;59475;52.464;13.590;2023-02-28T08:07:04;8.48;;;5.10;;
71626;SDS011;59475;52.464;13.590;2023-02-28T08:09:29;7.00;;;4.20;;
71626;SDS011;59475;52.464;13.590;2023-02-28T08:11:55;9.80;;;4.83;;
71626;SDS011;59475;52.464;13.590;2023-02-28T08:14:20;7.30;;;3.97;;
71626;SDS011;59475;52.464;13.590;2023-02-28T08:16:46;9.40;;;5.30;;
71626;SDS011;59475;52.464;13.590;2023-02-28T08:19:11;7.33;;;4.40;;
71626;SDS011;59475;52.464;13.590;2023-02-28T08:21:37;6.63;;;4.20;;
71626;SDS011;59475;52.464;13.590;2023-02-28T08:24:02;8.07;;;4.30;;
71626;SDS011;59475;52.464;13.590;2023-02-28T08:26:28;8.23;;;4.20;;
71626;SDS011;59475;52.464;13.590;2023-02-28T08:28:53;6.07;;;4.00;;
71626;SDS011;59475;52.464;13.590;2023-02-28T08:31:18;8.40;;;4.33;;
71626;SDS011;59475;52.464;13.590;2023-02-28T08:33:44;8.13;;;4.70;;
71626;SDS011;59475;52.464;13.590;2023-02-28T08:36:10;10.07;;;5.20;;
71626;SDS011;59475;52.464;13.590;2023-02-28T08:38:37;6.85;;;4.20;;
71626;SDS011;59475;52.464;13.590;2023-02-28T08:41:04;6.97;;;4.25;;
71626;SDS011;59475;52.464;13.590;2023-02-28T08:43:32;5.63;;;4.17;;
71626;SDS011;59475;52.464;13.590;2023-02-28T08:45:58;6.57;;;3.80;;
71626;SDS011;59475;52.464;13.590;2023-02-28T08:48:27;6.13;;;4.30;;
71626;SDS011;59475;52.464;13.590;2023-02-28T08:50:55;7.22;;;3.67;;
71626;SDS011;59475;52.464;13.590;2023-02-28T08:53:29;6.37;;;4.40;;
71626;SDS011;59475;52.464;13.590;2023-02-28T08:56:05;6.72;;;3.67;;
71626;SDS011;59475;52.464;13.590;2023-02-28T08:58:34;6.70;;;4.10;;
71626;SDS011;59475;52.464;13.590;2023-02-28T09:01:06;7.18;;;4.30;;
71626;SDS011;59475;52.464;13.590;2023-02-28T09:03:33;7.18;;;3.88;;
71626;SDS011;59475;52.464;13.590;2023-02-28T09:05:59;8.30;;;3.97;;
71626;SDS011;59475;52.464;13.590;2023-02-28T09:08:26;7.93;;;4.57;;
71626;SDS011;59475;52.464;13.590;2023-02-28T09:10:53;9.57;;;4.80;;
71626;SDS011;59475;52.464;13.590;2023-02-28T09:13:21;7.82;;;3.30;;
71626;SDS011;59475;52.464;13.590;2023-02-28T09:15:47;4.97;;;3.53;;
71626;SDS011;59475;52.464;13.590;2023-02-28T09:18:12;4.17;;;2.37;;
71626;SDS011;59475;52.464;13.590;2023-02-28T09:20:38;3.90;;;2.83;;
71626;SDS011;59475;52.464;13.590;2023-02-28T09:23:07;5.72;;;3.80;;
71626;SDS011;59475;52.464;13.590;2023-02-28T09:25:34;5.00;;;3.00;;
71626;SDS011;59475;52.464;13.590;2023-02-28T09:27:59;4.50;;;3.33;;
71626;SDS011;59475;52.464;13.590;2023-02-28T09:30:25;3.83;;;2.40;;
71626;SDS011;59475;52.464;13.590;2023-02-28T09:32:51;6.85;;;2.70;;
71626;SDS011;59475;52.464;13.590;2023-02-28T09:35:23;6.03;;;3.10;;
71626;SDS011;59475;52.464;13.590;2023-02-28T09:37:49;5.40;;;3.60;;
71626;SDS011;59475;52.464;13.590;2023-02-28T09:40:16;3.20;;;2.22;;
71626;SDS011;59475;52.464;13.590;2023-02-28T09:42:45;3.50;;;2.23;;
71626;SDS011;59475;52.464;13.590;2023-02-28T09:45:16;4.00;;;2.78;;
71626;SDS011;59475;52.464;13.590;2023-02-28T09:47:54;5.15;;;2.85;;
71626;SDS011;59475;52.464;13.590;2023-02-28T09:52:52;4.18;;;2.97;;
71626;SDS011;59475;52.464;13.590;2023-02-28T09:55:26;3.57;;;2.20;;
71626;SDS011;59475;52.464;13.590;2023-02-28T09:57:56;2.05;;;1.77;;
71626;SDS011;59475;52.464;13.590;2023-02-28T10:00:28;3.55;;;2.20;;
71626;SDS011;59475;52.464;13.590;2023-02-28T10:05:40;4.38;;;2.70;;
71626;SDS011;59475;52.464;13.590;2023-02-28T10:08:25;2.93;;;2.27;;
71626;SDS011;59475;52.464;13.590;2023-02-28T10:11:05;3.22;;;1.80;;
71626;SDS011;59475;52.464;13.590;2023-02-28T10:16:31;3.15;;;2.30;;
71626;SDS011;59475;52.464;13.590;2023-02-28T10:19:30;3.45;;;2.05;;
71626;SDS011;59475;52.464;13.590;2023-02-28T10:22:00;3.00;;;1.80;;
71626;SDS011;59475;52.464;13.590;2023-02-28T10:24:39;3.05;;;1.90;;
71626;SDS011;59475;52.464;13.590;2023-02-28T10:27:17;2.85;;;1.88;;
71626;SDS011;59475;52.464;13.590;2023-02-28T10:29:45;4.93;;;2.35;;
71626;SDS011;59475;52.464;13.590;2023-02-28T10:32:19;4.43;;;2.33;;
71626;SDS011;59475;52.464;13.590;2023-02-28T10:34:51;4.50;;;2.30;;
71626;SDS011;59475;52.464;13.590;2023-02-28T10:37:22;4.68;;;2.03;;
71626;SDS011;59475;52.464;13.590;2023-02-28T10:39:47;6.80;;;3.10;;
71626;SDS011;59475;52.464;13.590;2023-02-28T10:42:31;3.30;;;2.13;;
71626;SDS011;59475;52.464;13.590;2023-02-28T10:45:31;3.90;;;2.43;;
71626;SDS011;59475;52.464;13.590;2023-02-28T11:04:04;3.67;;;2.83;;
71626;SDS011;59475;52.464;13.590;2023-02-28T11:06:43;3.72;;;2.08;;
71626;SDS011;59475;52.464;13.590;2023-02-28T11:09:44;1.93;;;1.43;;
71626;SDS011;59475;52.464;13.590;2023-02-28T11:12:05;2.43;;;1.90;;
71626;SDS011;59475;52.464;13.590;2023-02-28T11:14:36;3.75;;;2.10;;
71626;SDS011;59475;52.464;13.590;2023-02-28T11:17:23;3.67;;;2.55;;
71626;SDS011;59475;52.464;13.590;2023-02-28T11:19:52;3.30;;;2.38;;
71626;SDS011;59475;52.464;13.590;2023-02-28T11:22:24;3.70;;;2.28;;
71626;SDS011;59475;52.464;13.590;2023-02-28T11:24:54;4.50;;;2.43;;
71626;SDS011;59475;52.464;13.590;2023-02-28T11:30:00;3.50;;;2.25;;
71626;SDS011;59475;52.464;13.590;2023-02-28T11:32:28;4.32;;;2.80;;
71626;SDS011;59475;52.464;13.590;2023-02-28T11:35:13;4.13;;;2.40;;
71626;SDS011;59475;52.464;13.590;2023-02-28T11:37:44;2.63;;;2.10;;
71626;SDS011;59475;52.464;13.590;2023-02-28T11:57:19;4.35;;;2.35;;
71626;SDS011;59475;52.464;13.590;2023-02-28T12:05:46;4.30;;;1.97;;
71626;SDS011;59475;52.464;13.590;2023-02-28T12:11:19;3.30;;;1.83;;
71626;SDS011;59475;52.464;13.590;2023-02-28T12:25:24;4.28;;;2.40;;
71626;SDS011;59475;52.464;13.590;2023-02-28T12:28:11;4.53;;;2.40;;
71626;SDS011;59475;52.464;13.590;2023-02-28T12:30:41;4.28;;;2.35;;
71626;SDS011;59475;52.464;13.590;2023-02-28T12:33:16;3.57;;;2.70;;
71626;SDS011;59475;52.464;13.590;2023-02-28T12:35:48;3.60;;;2.33;;
71626;SDS011;59475;52.464;13.590;2023-02-28T12:38:15;4.47;;;2.65;;
71626;SDS011;59475;52.464;13.590;2023-02-28T12:40:56;2.55;;;1.83;;
71626;SDS011;59475;52.464;13.590;2023-02-28T12:44:05;3.95;;;2.67;;
71626;SDS011;59475;52.464;13.590;2023-02-28T12:46:50;4.23;;;2.17;;
71626;SDS011;59475;52.464;13.590;2023-02-28T12:51:50;5.53;;;2.85;;
71626;SDS011;59475;52.464;13.590;2023-02-28T12:54:24;4.18;;;2.25;;
71626;SDS011;59475;52.464;13.590;2023-02-28T13:10:48;2.40;;;2.10;;
71626;SDS011;59475;52.464;13.590;2023-02-28T13:13:19;3.97;;;2.30;;
71626;SDS011;59475;52.464;13.590;2023-02-28T13:18:43;3.65;;;1.88;;
71626;SDS011;59475;52.464;13.590;2023-02-28T13:21:24;4.55;;;2.30;;
71626;SDS011;59475;52.464;13.590;2023-02-28T13:28:57;3.83;;;2.67;;
71626;SDS011;59475;52.464;13.590;2023-02-28T13:31:24;4.30;;;2.53;;
71626;SDS011;59475;52.464;13.590;2023-02-28T13:38:51;4.38;;;2.72;;
71626;SDS011;59475;52.464;13.590;2023-02-28T13:54:30;8.18;;;2.40;;
71626;SDS011;59475;52.464;13.590;2023-02-28T13:57:22;4.13;;;2.78;;
71626;SDS011;59475;52.464;13.590;2023-02-28T14:00:02;5.43;;;3.08;;
71626;SDS011;59475;52.464;13.590;2023-02-28T14:02:36;5.17;;;2.47;;
71626;SDS011;59475;52.464;13.590;2023-02-28T14:05:17;5.72;;;2.80;;
71626;SDS011;59475;52.464;13.590;2023-02-28T14:07:50;4.10;;;2.53;;
71626;SDS011;59475;52.464;13.590;2023-02-28T14:10:21;9.10;;;2.55;;
71626;SDS011;59475;52.464;13.590;2023-02-28T14:17:58;4.05;;;2.60;;
71626;SDS011;59475;52.464;13.590;2023-02-28T14:20:28;4.82;;;2.97;;
71626;SDS011;59475;52.464;13.590;2023-02-28T14:23:15;6.40;;;3.10;;
71626;SDS011;59475;52.464;13.590;2023-02-28T14:36:38;3.65;;;2.90;;
71626;SDS011;59475;52.464;13.590;2023-02-28T14:39:06;2.45;;;2.13;;
71626;SDS011;59475;52.464;13.590;2023-02-28T14:41:40;4.35;;;2.83;;
71626;SDS011;59475;52.464;13.590;2023-02-28T14:46:52;4.30;;;2.63;;
71626;SDS011;59475;52.464;13.590;2023-02-28T14:49:27;5.13;;;3.13;;
71626;SDS011;59475;52.464;13.590;2023-02-28T14:52:01;4.15;;;3.10;;
71626;SDS011;59475;52.464;13.590;2023-02-28T14:54:27;6.43;;;2.65;;
71626;SDS011;59475;52.464;13.590;2023-02-28T14:56:53;4.03;;;3.08;;
71626;SDS011;59475;52.464;13.590;2023-02-28T14:59:27;4.90;;;2.80;;
71626;SDS011;59475;52.464;13.590;2023-02-28T15:02:16;5.60;;;3.00;;
71626;SDS011;59475;52.464;13.590;2023-02-28T15:04:44;3.78;;;2.40;;
71626;SDS011;59475;52.464;13.590;2023-02-28T15:07:17;5.10;;;2.90;;
71626;SDS011;59475;52.464;13.590;2023-02-28T15:09:43;5.43;;;2.60;;
71626;SDS011;59475;52.464;13.590;2023-02-28T15:12:09;4.77;;;2.47;;
71626;SDS011;59475;52.464;13.590;2023-02-28T15:14:39;3.85;;;2.65;;
71626;SDS011;59475;52.464;13.590;2023-02-28T15:17:11;5.27;;;3.33;;
71626;SDS011;59475;52.464;13.590;2023-02-28T15:19:50;3.72;;;2.33;;
71626;SDS011;59475;52.464;13.590;2023-02-28T15:22:19;5.97;;;2.78;;
71626;SDS011;59475;52.464;13.590;2023-02-28T15:24:53;5.28;;;3.10;;
71626;SDS011;59475;52.464;13.590;2023-02-28T15:29:48;4.73;;;3.07;;
71626;SDS011;59475;52.464;13.590;2023-02-28T15:32:37;6.25;;;3.22;;
71626;SDS011;59475;52.464;13.590;2023-02-28T15:37:50;7.07;;;2.50;;
71626;SDS011;59475;52.464;13.590;2023-02-28T15:43:45;3.80;;;2.60;;
71626;SDS011;59475;52.464;13.590;2023-02-28T15:46:00;5.47;;;2.50;;
71626;SDS011;59475;52.464;13.590;2023-02-28T15:48:29;4.75;;;2.63;;
71626;SDS011;59475;52.464;13.590;2023-02-28T15:50:56;4.20;;;2.63;;
71626;SDS011;59475;52.464;13.590;2023-02-28T15:53:28;4.03;;;2.55;;
71626;SDS011;59475;52.464;13.590;2023-02-28T15:56:05;5.33;;;2.60;;
71626;SDS011;59475;52.464;13.590;2023-02-28T15:58:38;6.57;;;3.00;;
71626;SDS011;59475;52.464;13.590;2023-02-28T16:01:16;4.50;;;3.10;;
71626;SDS011;59475;52.464;13.590;2023-02-28T16:03:45;4.88;;;3.38;;
71626;SDS011;59475;52.464;13.590;2023-02-28T16:08:42;7.47;;;3.40;;
71626;SDS011;59475;52.464;13.590;2023-02-28T16:11:09;8.10;;;3.22;;
71626;SDS011;59475;52.464;13.590;2023-02-28T16:13:35;7.18;;;3.53;;
71626;SDS011;59475;52.464;13.590;2023-02-28T16:16:01;7.10;;;3.47;;
71626;SDS011;59475;52.464;13.590;2023-02-28T16:18:26;8.33;;;3.60;;
71626;SDS011;59475;52.464;13.590;2023-02-28T16:20:52;5.60;;;3.20;;
71626;SDS011;59475;52.464;13.590;2023-02-28T16:23:17;5.03;;;3.10;;
71626;SDS011;59475;52.464;13.590;2023-02-28T16:25:43;5.00;;;3.38;;
71626;SDS011;59475;52.464;13.590;2023-02-28T16:28:20;6.17;;;3.37;;
71626;SDS011;59475;52.464;13.590;2023-02-28T16:30:53;4.57;;;2.92;;
71626;SDS011;59475;52.464;13.590;2023-02-28T16:33:18;6.30;;;3.65;;
71626;SDS011;59475;52.464;13.590;2023-02-28T16:35:44;6.90;;;3.70;;
71626;SDS011;59475;52.464;13.590;2023-02-28T16:38:09;9.40;;;3.60;;
71626;SDS011;59475;52.464;13.590;2023-02-28T16:40:35;7.78;;;4.20;;
71626;SDS011;59475;52.464;13.590;2023-02-28T16:43:03;6.28;;;4.15;;
71626;SDS011;59475;52.464;13.590;2023-02-28T16:45:32;5.70;;;3.80;;
71626;SDS011;59475;52.464;13.590;2023-02-28T16:47:57;8.52;;;4.15;;
71626;SDS011;59475;52.464;13.590;2023-02-28T16:50:24;8.07;;;3.87;;
71626;SDS011;59475;52.464;13.590;2023-02-28T16:52:51;8.13;;;4.50;;
71626;SDS011;59475;52.464;13.590;2023-02-28T16:55:20;9.82;;;4.60;;
71626;SDS011;59475;52.464;13.590;2023-02-28T16:57:48;8.60;;;4.60;;
71626;SDS011;59475;52.464;13.590;2023-02-28T17:00:19;8.15;;;4.43;;
71626;SDS011;59475;52.464;13.590;2023-02-28T17:02:45;8.88;;;4.22;;
71626;SDS011;59475;52.464;13.590;2023-02-28T17:05:11;7.97;;;4.30;;
71626;SDS011;59475;52.464;13.590;2023-02-28T17:07:36;7.07;;;4.00;;
71626;SDS011;59475;52.464;13.590;2023-02-28T17:10:02;7.57;;;4.33;;
71626;SDS011;59475;52.464;13.590;2023-02-28T17:12:34;6.60;;;4.05;;
71626;SDS011;59475;52.464;13.590;2023-02-28T17:15:00;7.90;;;3.40;;
71626;SDS011;59475;52.464;13.590;2023-02-28T17:17:25;5.47;;;3.03;;
71626;SDS011;59475;52.464;13.590;2023-02-28T17:19:50;11.17;;;3.27;;
71626;SDS011;59475;52.464;13.590;2023-02-28T17:22:16;6.73;;;3.30;;
71626;SDS011;59475;52.464;13.590;2023-02-28T17:24:41;6.33;;;3.47;;
71626;SDS011;59475;52.464;13.590;2023-02-28T17:27:09;5.73;;;3.30;;
71626;SDS011;59475;52.464;13.590;2023-02-28T17:29:37;5.75;;;3.70;;
71626;SDS011;59475;52.464;13.590;2023-02-28T17:32:03;11.97;;;4.20;;
71626;SDS011;59475;52.464;13.590;2023-02-28T17:34:28;5.78;;;3.53;;
71626;SDS011;59475;52.464;13.590;2023-02-28T17:36:54;6.37;;;3.40;;
71626;SDS011;59475;52.464;13.590;2023-02-28T17:39:19;6.97;;;3.67;;
71626;SDS011;59475;52.464;13.590;2023-02-28T17:41:55;5.32;;;3.20;;
71626;SDS011;59475;52.464;13.590;2023-02-28T17:44:21;7.82;;;3.17;;
71626;SDS011;59475;52.464;13.590;2023-02-28T17:46:49;5.75;;;3.28;;
71626;SDS011;59475;52.464;13.590;2023-02-28T17:49:15;5.53;;;3.22;;
71626;SDS011;59475;52.464;13.590;2023-02-28T17:51:42;6.07;;;3.30;;
71626;SDS011;59475;52.464;13.590;2023-02-28T17:54:07;8.15;;;3.63;;
71626;SDS011;59475;52.464;13.590;2023-02-28T17:56:33;6.67;;;3.57;;
71626;SDS011;59475;52.464;13.590;2023-02-28T17:58:58;10.07;;;4.00;;
71626;SDS011;59475;52.464;13.590;2023-02-28T18:01:24;8.33;;;3.80;;
71626;SDS011;59475;52.464;13.590;2023-02-28T18:03:51;6.65;;;3.55;;
71626;SDS011;59475;52.464;13.590;2023-02-28T18:06:27;6.97;;;3.72;;
71626;SDS011;59475;52.464;13.590;2023-02-28T18:09:01;6.60;;;3.88;;
71626;SDS011;59475;52.464;13.590;2023-02-28T18:11:27;7.57;;;4.30;;
71626;SDS011;59475;52.464;13.590;2023-02-28T18:14:07;6.50;;;3.50;;
71626;SDS011;59475;52.464;13.590;2023-02-28T18:16:33;7.32;;;4.00;;
71626;SDS011;59475;52.464;13.590;2023-02-28T18:18:59;8.20;;;4.13;;